createdAt,value
2022-09-15T00:02:00.164Z,2.20
2022-09-15T00:04:28.858Z,2.07
2022-09-15T00:06:57.630Z,1.77
2022-09-15T00:09:28.151Z,1.87
2022-09-15T00:12:01.747Z,1.97
2022-09-15T00:14:30.143Z,2.00
2022-09-15T00:17:07.506Z,2.43
2022-09-15T00:19:35.841Z,2.10
2022-09-15T00:22:04.338Z,2.20
2022-09-15T00:24:33.098Z,2.80
2022-09-15T00:27:02.915Z,2.13
2022-09-15T00:29:34.284Z,2.90
2022-09-15T00:32:03.342Z,2.50
2022-09-15T00:34:34.252Z,2.67
2022-09-15T00:37:08.032Z,2.70
2022-09-15T00:39:37.724Z,2.97
2022-09-15T00:42:07.776Z,2.60
2022-09-15T00:44:56.251Z,2.90
2022-09-15T00:47:28.807Z,3.13
2022-09-15T00:49:59.594Z,3.57
2022-09-15T00:52:31.213Z,2.60
2022-09-15T00:55:01.251Z,3.30
2022-09-15T00:57:37.498Z,3.60
2022-09-15T01:00:09.491Z,3.07
2022-09-15T01:02:39.116Z,3.17
2022-09-15T01:05:10.693Z,3.20
2022-09-15T01:07:43.592Z,2.90
2022-09-15T01:10:19.113Z,2.60
2022-09-15T01:12:52.624Z,2.57
2022-09-15T01:15:24.963Z,2.40
2022-09-15T01:18:03.379Z,2.10
2022-09-15T01:20:59.164Z,1.70
2022-09-15T01:24:19.920Z,1.33
2022-09-15T01:27:40.523Z,1.53
2022-09-15T01:30:14.331Z,1.47
2022-09-15T01:33:06.796Z,1.70
2022-09-15T01:35:54.223Z,1.70
2022-09-15T01:38:33.018Z,1.47
2022-09-15T01:41:07.503Z,1.50
2022-09-15T01:43:40.902Z,1.60
2022-09-15T01:46:12.974Z,1.80
2022-09-15T01:48:48.854Z,1.73
2022-09-15T01:51:17.234Z,1.37
2022-09-15T01:53:50.669Z,1.57
2022-09-15T01:56:23.505Z,1.27
2022-09-15T01:58:52.682Z,1.23
2022-09-15T02:01:26.683Z,1.30
2022-09-15T02:03:56.609Z,1.20
2022-09-15T02:06:36.159Z,1.30
2022-09-15T02:09:06.475Z,1.87
2022-09-15T02:11:35.500Z,1.43
2022-09-15T02:14:11.575Z,1.20
2022-09-15T02:16:44.535Z,1.23
2022-09-15T02:19:16.545Z,1.33
2022-09-15T02:21:54.262Z,1.10
2022-09-15T02:24:33.727Z,1.33
2022-09-15T02:27:02.113Z,1.47
2022-09-15T02:29:31.173Z,1.53
2022-09-15T02:32:06.764Z,1.50
2022-09-15T02:34:45.686Z,1.63
2022-09-15T02:37:15.179Z,1.30
2022-09-15T02:39:49.411Z,1.20
2022-09-15T02:42:24.856Z,1.80
2022-09-15T02:44:57.711Z,1.70
2022-09-15T02:47:28.462Z,2.63
2022-09-15T02:49:57.216Z,2.00
2022-09-15T02:52:26.926Z,1.90
2022-09-15T02:54:56.486Z,1.53
2022-09-15T02:57:25.470Z,2.40
2022-09-15T03:00:11.029Z,1.80
2022-09-15T03:02:41.161Z,1.67
2022-09-15T03:05:11.520Z,1.60
2022-09-15T03:07:40.565Z,1.60
2022-09-15T03:10:09.748Z,2.30
2022-09-15T03:12:43.320Z,1.53
2022-09-15T03:15:15.883Z,1.80
2022-09-15T03:17:47.058Z,1.13
2022-09-15T03:20:19.656Z,1.27
2022-09-15T03:22:48.015Z,1.20
2022-09-15T03:25:32.036Z,1.23
2022-09-15T03:28:01.979Z,1.23
2022-09-15T03:30:30.289Z,1.30
2022-09-15T03:33:03.520Z,1.30
2022-09-15T03:35:32.782Z,1.30
2022-09-15T03:38:01.119Z,1.00
2022-09-15T03:40:29.585Z,1.13
2022-09-15T03:42:59.451Z,1.17
2022-09-15T03:45:37.790Z,1.30
2022-09-15T03:48:09.102Z,1.07
2022-09-15T03:50:39.450Z,0.90
2022-09-15T03:53:30.467Z,1.00
2022-09-15T03:56:13.225Z,1.73
2022-09-15T03:58:41.934Z,1.30
2022-09-15T04:01:17.561Z,1.13
2022-09-15T04:03:50.929Z,1.13
2022-09-15T04:06:20.379Z,1.60
2022-09-15T04:08:49.159Z,1.30
2022-09-15T04:11:26.914Z,1.30
2022-09-15T04:13:55.837Z,1.50
2022-09-15T04:16:24.862Z,1.30
2022-09-15T04:18:55.259Z,1.20
2022-09-15T04:21:25.490Z,1.53
2022-09-15T04:23:54.210Z,1.50
2022-09-15T04:26:23.722Z,1.37
2022-09-15T04:28:52.084Z,1.33
2022-09-15T04:31:24.465Z,1.20
2022-09-15T04:33:57.846Z,0.97
2022-09-15T04:36:31.689Z,1.40
2022-09-15T04:39:02.774Z,1.80
2022-09-15T04:41:31.059Z,1.10
2022-09-15T04:43:59.631Z,1.33
2022-09-15T04:46:27.897Z,1.73
2022-09-15T04:48:58.998Z,1.40
2022-09-15T04:51:28.168Z,1.20
2022-09-15T04:53:56.437Z,0.90
2022-09-15T04:56:28.142Z,1.20
2022-09-15T04:59:03.197Z,0.87
2022-09-15T05:01:38.541Z,1.10
2022-09-15T05:04:08.279Z,0.93
2022-09-15T05:06:40.024Z,1.00
2022-09-15T05:09:10.507Z,1.10
2022-09-15T05:11:39.779Z,1.20
2022-09-15T05:14:09.873Z,1.10
2022-09-15T05:16:44.390Z,1.20
2022-09-15T05:19:22.819Z,1.40
2022-09-15T05:21:53.609Z,0.80
2022-09-15T05:24:25.002Z,1.20
2022-09-15T05:26:57.640Z,1.10
2022-09-15T05:29:28.188Z,1.60
2022-09-15T05:32:03.315Z,1.07
2022-09-15T05:34:32.981Z,1.50
2022-09-15T05:37:05.388Z,1.03
2022-09-15T05:39:33.648Z,1.10
2022-09-15T05:42:10.724Z,1.53
2022-09-15T05:44:44.850Z,0.93
2022-09-15T05:47:13.243Z,1.30
2022-09-15T05:49:48.418Z,1.20
2022-09-15T05:52:20.142Z,1.17
2022-09-15T05:54:48.618Z,1.00
2022-09-15T05:57:17.537Z,1.10
2022-09-15T05:59:45.847Z,1.23
2022-09-15T06:02:15.565Z,1.10
2022-09-15T06:04:51.144Z,1.27
2022-09-15T06:07:22.869Z,0.90
2022-09-15T06:09:51.413Z,1.50
2022-09-15T06:12:23.014Z,1.47
2022-09-15T06:14:55.352Z,1.40
2022-09-15T06:17:39.826Z,1.13
2022-09-15T06:20:14.846Z,0.80
2022-09-15T06:22:43.606Z,1.30
2022-09-15T06:25:14.294Z,1.60
2022-09-15T06:27:55.424Z,1.00
2022-09-15T06:30:31.210Z,1.70
2022-09-15T06:33:05.424Z,1.23
2022-09-15T06:35:40.712Z,1.70
2022-09-15T06:38:13.715Z,1.30
2022-09-15T06:40:43.256Z,1.33
2022-09-15T06:43:14.127Z,1.43
2022-09-15T06:45:46.503Z,1.73
2022-09-15T06:48:24.347Z,1.57
2022-09-15T06:51:02.209Z,1.47
2022-09-15T06:53:33.218Z,2.30
2022-09-15T06:56:08.886Z,1.40
2022-09-15T06:58:39.709Z,1.50
2022-09-15T07:01:14.263Z,1.30
2022-09-15T07:03:46.709Z,1.70
2022-09-15T07:06:16.388Z,1.83
2022-09-15T07:08:45.525Z,1.80
2022-09-15T07:11:25.340Z,1.60
2022-09-15T07:13:55.666Z,1.33
2022-09-15T07:16:30.659Z,1.20
2022-09-15T07:19:03.100Z,1.43
2022-09-15T07:21:41.842Z,1.83
2022-09-15T07:24:15.643Z,1.60
2022-09-15T07:26:49.408Z,2.33
2022-09-15T07:29:17.834Z,1.30
2022-09-15T07:31:49.011Z,1.50
2022-09-15T07:34:24.324Z,1.30
2022-09-15T07:36:54.314Z,1.30
2022-09-15T07:39:36.193Z,1.43
2022-09-15T07:42:08.284Z,1.50
2022-09-15T07:44:56.573Z,1.30
2022-09-15T07:47:32.113Z,1.00
2022-09-15T07:50:09.421Z,1.20
2022-09-15T07:52:40.955Z,1.50
2022-09-15T07:55:10.942Z,1.63
2022-09-15T07:57:43.243Z,1.40
2022-09-15T08:00:22.875Z,1.10
2022-09-15T08:03:00.327Z,1.50
2022-09-15T08:05:29.316Z,0.97
2022-09-15T08:07:59.644Z,1.30
2022-09-15T08:10:38.058Z,1.50
2022-09-15T08:13:25.195Z,0.83
2022-09-15T08:15:53.695Z,1.27
2022-09-15T08:18:26.045Z,1.30
2022-09-15T08:20:55.597Z,0.90
2022-09-15T08:23:36.457Z,0.90
2022-09-15T08:26:14.965Z,1.00
2022-09-15T08:28:43.569Z,0.90
2022-09-15T08:31:13.205Z,0.93
2022-09-15T08:33:51.536Z,1.07
2022-09-15T08:36:24.846Z,1.10
2022-09-15T08:38:59.266Z,1.30
2022-09-15T08:41:29.390Z,1.10
2022-09-15T08:44:31.256Z,0.90
2022-09-15T08:47:04.543Z,1.17
2022-09-15T08:49:51.010Z,1.10
2022-09-15T08:52:40.665Z,1.17
2022-09-15T08:55:15.976Z,0.97
2022-09-15T08:58:05.933Z,0.83
2022-09-15T09:00:43.360Z,1.13
2022-09-15T09:03:31.949Z,0.90
2022-09-15T09:06:04.098Z,1.40
2022-09-15T09:09:02.210Z,0.90
2022-09-15T09:11:48.846Z,1.20
2022-09-15T09:15:20.042Z,0.90
2022-09-15T09:18:24.458Z,1.10
2022-09-15T09:21:16.037Z,1.10
2022-09-15T09:24:02.642Z,1.13
2022-09-15T09:27:17.255Z,1.50
2022-09-15T09:29:55.564Z,1.00
2022-09-15T09:32:28.759Z,1.10
2022-09-15T09:35:09.575Z,1.27
2022-09-15T09:37:39.431Z,1.33
2022-09-15T09:40:46.458Z,1.70
2022-09-15T09:46:46.766Z,0.90
2022-09-15T09:49:21.984Z,1.33
2022-09-15T09:52:09.028Z,1.00
2022-09-15T09:55:02.894Z,1.07
2022-09-15T09:57:55.619Z,1.03
2022-09-15T10:00:50.661Z,0.80
2022-09-15T10:03:35.265Z,0.93
2022-09-15T10:06:06.770Z,0.90
2022-09-15T10:08:55.525Z,1.60
2022-09-15T10:12:02.923Z,1.30
2022-09-15T10:15:06.791Z,1.30
2022-09-15T10:18:08.844Z,1.10
2022-09-15T10:20:53.738Z,1.20
2022-09-15T10:24:35.146Z,1.30
2022-09-15T10:27:50.526Z,0.87
2022-09-15T10:30:30.046Z,1.40
2022-09-15T10:33:44.325Z,1.10
2022-09-15T10:36:47.277Z,1.00
2022-09-15T10:50:49.337Z,0.80
2022-09-15T10:54:38.443Z,0.77
2022-09-15T10:57:28.382Z,0.80
2022-09-15T11:00:04.184Z,1.00
2022-09-15T11:03:35.994Z,1.00
2022-09-15T11:10:45.768Z,0.70
2022-09-15T11:14:32.014Z,1.30
2022-09-15T11:21:37.533Z,0.60
2022-09-15T11:28:19.424Z,0.80
2022-09-15T11:42:50.847Z,1.30
2022-09-15T11:50:31.415Z,0.80
2022-09-15T11:54:03.236Z,0.80
2022-09-15T11:58:24.018Z,1.13
2022-09-15T12:08:06.048Z,0.80
2022-09-15T12:10:54.793Z,0.80
2022-09-15T12:13:32.480Z,1.20
2022-09-15T12:16:25.706Z,1.20
2022-09-15T12:21:48.340Z,1.13
2022-09-15T12:24:35.861Z,1.20
2022-09-15T12:27:11.005Z,1.07
2022-09-15T12:29:57.535Z,1.50
2022-09-15T12:32:36.626Z,1.50
2022-09-15T12:35:36.294Z,0.60
2022-09-15T12:38:15.445Z,1.03
2022-09-15T12:41:02.542Z,0.83
2022-09-15T12:43:48.694Z,0.93
2022-09-15T12:46:29.484Z,0.90
2022-09-15T12:49:14.634Z,0.97
2022-09-15T12:52:12.092Z,0.93
2022-09-15T12:55:23.781Z,1.07
2022-09-15T12:58:04.347Z,1.30
2022-09-15T13:01:00.639Z,0.70
2022-09-15T13:04:22.632Z,0.83
2022-09-15T13:07:23.438Z,0.70
2022-09-15T13:10:03.692Z,1.17
2022-09-15T13:12:38.540Z,1.07
2022-09-15T13:15:26.350Z,0.73
2022-09-15T13:18:21.364Z,1.00
2022-09-15T13:21:09.299Z,1.00
2022-09-15T13:24:13.710Z,1.20
2022-09-15T13:27:02.914Z,0.73
2022-09-15T13:29:40.499Z,0.73
2022-09-15T13:32:33.665Z,1.17
2022-09-15T13:35:19.725Z,0.60
2022-09-15T13:38:51.450Z,0.80
2022-09-15T13:42:09.752Z,0.70
2022-09-15T13:45:30.672Z,1.20
2022-09-15T13:48:45.647Z,1.20
2022-09-15T13:51:43.742Z,0.70
2022-09-15T13:54:20.732Z,0.70
2022-09-15T13:56:54.282Z,0.80
2022-09-15T13:59:25.902Z,1.40
2022-09-15T14:02:00.972Z,0.83
2022-09-15T14:04:45.213Z,1.03
2022-09-15T14:07:22.463Z,1.20
2022-09-15T14:09:56.895Z,1.10
2022-09-15T14:12:30.849Z,1.13
2022-09-15T14:15:14.622Z,0.80
2022-09-15T14:17:50.782Z,1.23
2022-09-15T14:20:27.260Z,1.10
2022-09-15T14:23:06.721Z,1.27
2022-09-15T14:25:40.175Z,1.03
2022-09-15T14:28:32.994Z,0.67
2022-09-15T14:31:08.472Z,0.70
2022-09-15T14:33:44.272Z,1.10
2022-09-15T14:36:38.307Z,1.00
2022-09-15T14:39:56.982Z,0.60
2022-09-15T14:42:45.302Z,0.60
2022-09-15T14:48:37.684Z,1.00
2022-09-15T14:52:21.503Z,0.70
2022-09-15T14:55:05.487Z,1.00
2022-09-15T14:58:02.017Z,1.20
2022-09-15T15:01:22.515Z,1.27
2022-09-15T15:08:02.853Z,0.90
2022-09-15T15:14:45.684Z,0.97
2022-09-15T15:20:54.382Z,0.60
2022-09-15T15:24:21.024Z,0.50
2022-09-15T15:27:00.580Z,0.90
2022-09-15T15:30:02.558Z,1.10
2022-09-15T15:32:53.735Z,0.50
2022-09-15T15:35:40.135Z,0.70
2022-09-15T15:38:25.454Z,1.13
2022-09-15T15:41:24.325Z,0.97
2022-09-15T15:45:08.969Z,1.10
2022-09-15T15:47:53.431Z,1.13
2022-09-15T15:50:54.823Z,0.97
2022-09-15T15:54:26.505Z,0.70
2022-09-15T15:57:34.123Z,1.00
2022-09-15T16:00:22.496Z,1.10
2022-09-15T16:03:09.750Z,0.73
2022-09-15T16:06:14.449Z,1.00
2022-09-15T16:19:50.759Z,0.80
2022-09-15T16:22:22.434Z,0.70
2022-09-15T16:25:29.643Z,1.47
2022-09-15T16:28:08.261Z,1.33
2022-09-15T16:31:10.252Z,1.00
2022-09-15T16:34:22.480Z,0.80
2022-09-15T16:39:53.142Z,0.97
2022-09-15T16:42:22.159Z,1.00
2022-09-15T16:44:53.229Z,0.70
2022-09-15T16:47:21.573Z,0.70
2022-09-15T16:49:53.711Z,0.80
2022-09-15T16:52:22.146Z,0.80
2022-09-15T16:54:50.786Z,1.00
2022-09-15T16:57:26.683Z,1.47
2022-09-15T16:59:55.342Z,1.10
2022-09-15T17:02:34.413Z,1.43
2022-09-15T17:05:04.429Z,1.77
2022-09-15T17:07:32.549Z,1.07
2022-09-15T17:10:03.234Z,2.57
2022-09-15T17:12:41.111Z,1.37
2022-09-15T17:15:45.338Z,1.80
2022-09-15T17:18:15.611Z,0.83
2022-09-15T17:20:49.768Z,1.20
2022-09-15T17:23:20.213Z,0.90
2022-09-15T17:25:52.878Z,0.87
2022-09-15T17:28:25.704Z,1.27
2022-09-15T17:30:58.093Z,1.03
2022-09-15T17:34:07.481Z,1.47
2022-09-15T17:37:13.324Z,0.90
2022-09-15T17:43:22.247Z,1.00
2022-09-15T17:46:16.900Z,1.10
2022-09-15T17:49:12.739Z,0.80
2022-09-15T17:52:07.793Z,1.03
2022-09-15T17:54:56.028Z,1.53
2022-09-15T17:57:26.991Z,1.00
2022-09-15T17:59:55.307Z,1.30
2022-09-15T18:02:29.324Z,1.10
2022-09-15T18:04:58.627Z,1.90
2022-09-15T18:07:36.030Z,1.23
2022-09-15T18:10:04.959Z,1.63
2022-09-15T18:12:34.633Z,1.23
2022-09-15T18:15:04.162Z,1.37
2022-09-15T18:17:32.712Z,1.57
2022-09-15T18:20:01.941Z,2.03
2022-09-15T18:22:32.523Z,0.90
2022-09-15T18:25:03.129Z,2.10
2022-09-15T18:27:31.987Z,1.30
2022-09-15T18:30:00.365Z,1.37
2022-09-15T18:32:28.640Z,1.93
2022-09-15T18:34:57.166Z,1.53
2022-09-15T18:37:25.868Z,1.37
2022-09-15T18:39:55.606Z,1.00
2022-09-15T18:42:28.499Z,1.47
2022-09-15T18:44:59.448Z,0.67
2022-09-15T18:47:29.023Z,1.00
2022-09-15T18:49:57.309Z,1.20
2022-09-15T18:52:32.628Z,0.90
2022-09-15T18:55:03.890Z,0.70
2022-09-15T18:58:15.257Z,1.13
2022-09-15T19:01:06.722Z,0.70
2022-09-15T19:03:45.750Z,0.60
2022-09-15T19:06:16.774Z,0.80
2022-09-15T19:12:17.554Z,0.87
2022-09-15T19:15:11.617Z,0.80
2022-09-15T19:17:49.719Z,0.70
2022-09-15T19:20:59.942Z,1.07
2022-09-15T19:27:54.749Z,1.10
2022-09-15T19:43:56.892Z,1.10
2022-09-15T19:46:49.779Z,0.77
2022-09-15T19:49:33.397Z,1.17
2022-09-15T19:52:20.207Z,1.33
2022-09-15T19:54:52.891Z,1.10
2022-09-15T19:57:39.939Z,1.10
2022-09-15T20:00:35.614Z,1.67
2022-09-15T20:06:32.938Z,1.03
2022-09-15T20:09:30.678Z,1.00
2022-09-15T20:15:48.885Z,1.27
2022-09-15T20:18:49.533Z,1.37
2022-09-15T20:22:01.494Z,0.87
2022-09-15T20:25:02.641Z,1.50
2022-09-15T20:27:45.797Z,1.00
2022-09-15T20:30:51.461Z,1.00
2022-09-15T20:33:37.862Z,1.27
2022-09-15T20:39:55.441Z,1.20
2022-09-15T20:42:40.792Z,0.90
2022-09-15T20:45:36.998Z,1.57
2022-09-15T20:48:52.244Z,0.90
2022-09-15T20:51:29.460Z,0.90
2022-09-15T20:54:35.853Z,1.03
2022-09-15T20:57:14.723Z,1.00
2022-09-15T20:59:56.981Z,0.83
2022-09-15T21:03:04.739Z,0.93
2022-09-15T21:05:55.211Z,0.77
2022-09-15T21:14:29.167Z,1.17
2022-09-15T21:17:02.444Z,1.00
2022-09-15T21:19:31.878Z,0.90
2022-09-15T21:22:05.440Z,1.00
2022-09-15T21:24:48.753Z,1.13
2022-09-15T21:27:29.069Z,1.47
2022-09-15T21:30:04.809Z,1.50
2022-09-15T21:32:36.937Z,1.20
2022-09-15T21:35:39.772Z,1.63
2022-09-15T21:38:28.594Z,1.50
2022-09-15T21:41:39.816Z,1.63
2022-09-15T21:47:39.724Z,1.90
2022-09-15T21:50:17.047Z,1.77
2022-09-15T21:52:58.139Z,1.60
2022-09-15T21:55:32.605Z,0.93
2022-09-15T21:58:01.134Z,0.87
2022-09-15T22:00:37.124Z,1.53
2022-09-15T22:03:16.297Z,1.30
2022-09-15T22:06:01.234Z,1.20
2022-09-15T22:08:44.896Z,1.90
2022-09-15T22:11:25.623Z,1.87
2022-09-15T22:17:56.626Z,1.20
2022-09-15T22:22:11.729Z,1.40
2022-09-15T22:33:00.675Z,1.47
2022-09-15T22:39:50.182Z,1.63
2022-09-15T22:43:27.530Z,1.03
2022-09-15T22:46:53.049Z,1.20
2022-09-15T22:58:35.513Z,1.50
2022-09-15T23:19:01.887Z,1.40
2022-09-15T23:22:35.771Z,1.60
2022-09-15T23:25:39.897Z,1.10
2022-09-15T23:35:54.095Z,1.30
2022-09-15T23:38:55.362Z,1.47
2022-09-15T23:45:11.365Z,1.60
2022-09-15T23:47:50.803Z,1.37
2022-09-15T23:50:55.506Z,1.33
2022-09-15T23:53:26.687Z,1.17
2022-09-15T23:56:01.208Z,1.03
2022-09-15T23:58:43.098Z,1.67
